createdAt,value
2018-03-11T00:03:08.329Z,48.20
2018-03-11T00:08:09.291Z,45.37
2018-03-11T00:13:10.241Z,46.80
2018-03-11T00:18:11.173Z,46.60
2018-03-11T00:23:12.097Z,47.43
2018-03-11T00:28:13.038Z,53.90
2018-03-11T00:33:14.000Z,49.60
2018-03-11T00:43:23.254Z,45.80
2018-03-11T00:48:24.201Z,49.17
2018-03-11T00:53:26.303Z,47.80
2018-03-11T00:58:27.262Z,45.83
2018-03-11T01:03:28.187Z,47.60
2018-03-11T01:08:29.106Z,44.67
2018-03-11T01:13:30.057Z,45.67
2018-03-11T01:18:31.268Z,45.20
2018-03-11T01:23:32.256Z,44.33
2018-03-11T01:28:33.186Z,45.10
2018-03-11T01:33:34.102Z,44.33
2018-03-11T01:38:35.287Z,46.30
2018-03-11T01:43:36.216Z,41.57
2018-03-11T01:48:37.124Z,43.53
2018-03-11T01:53:38.063Z,45.57
2018-03-11T01:58:39.045Z,43.13
2018-03-11T02:03:39.977Z,44.07
2018-03-11T02:08:40.900Z,45.57
2018-03-11T02:13:41.871Z,43.07
2018-03-11T02:18:42.836Z,41.00
2018-03-11T02:23:43.774Z,42.40
2018-03-11T02:28:51.566Z,43.90
2018-03-11T02:33:52.500Z,43.00
2018-03-11T02:38:53.467Z,41.93
2018-03-11T02:43:54.397Z,40.83
2018-03-11T02:48:55.316Z,39.80
2018-03-11T02:53:56.235Z,40.33
2018-03-11T02:58:57.163Z,41.00
2018-03-11T03:03:58.098Z,41.80
2018-03-11T03:08:59.012Z,39.73
2018-03-11T03:13:59.947Z,42.17
2018-03-11T03:19:00.853Z,41.93
2018-03-11T03:24:01.773Z,40.00
2018-03-11T03:29:02.700Z,39.20
2018-03-11T03:34:03.612Z,40.83
2018-03-11T03:39:04.555Z,39.47
2018-03-11T03:44:05.488Z,39.70
2018-03-11T03:49:06.533Z,39.03
2018-03-11T03:54:07.464Z,40.17
2018-03-11T03:59:08.449Z,44.13
2018-03-11T04:04:09.384Z,43.50
2018-03-11T04:09:10.313Z,43.77
2018-03-11T04:14:11.232Z,45.50
2018-03-11T04:19:12.416Z,42.93
2018-03-11T04:24:13.338Z,45.23
2018-03-11T04:29:14.593Z,43.73
2018-03-11T04:34:15.529Z,45.47
2018-03-11T04:39:16.494Z,50.77
2018-03-11T04:44:17.402Z,47.50
2018-03-11T04:49:18.338Z,51.30
2018-03-11T04:54:19.251Z,51.63
2018-03-11T04:59:20.214Z,50.30
2018-03-11T05:04:21.128Z,49.43
2018-03-11T05:09:22.112Z,53.47
2018-03-11T05:14:23.041Z,47.57
2018-03-11T05:19:23.977Z,53.73
2018-03-11T05:24:24.909Z,53.67
2018-03-11T05:29:25.828Z,54.73
2018-03-11T05:34:26.753Z,56.50
2018-03-11T05:39:27.700Z,51.47
2018-03-11T05:44:28.655Z,64.40
2018-03-11T05:49:29.595Z,51.20
2018-03-11T05:54:30.530Z,52.00
2018-03-11T05:59:31.481Z,48.30
2018-03-11T06:04:32.417Z,54.63
2018-03-11T06:09:34.116Z,51.87
2018-03-11T06:14:35.064Z,50.80
2018-03-11T06:19:36.013Z,54.10
2018-03-11T06:24:36.925Z,48.93
2018-03-11T06:29:38.169Z,55.10
2018-03-11T06:34:39.094Z,54.50
2018-03-11T06:39:40.064Z,53.63
2018-03-11T06:44:41.324Z,52.47
2018-03-11T06:49:42.235Z,49.90
2018-03-11T06:54:43.149Z,52.20
2018-03-11T06:59:44.132Z,53.80
2018-03-11T07:04:45.057Z,59.10
2018-03-11T07:09:45.991Z,54.53
2018-03-11T11:14:44.460Z,32.10
2018-03-11T11:19:45.442Z,31.50
2018-03-11T11:24:46.389Z,28.93
2018-03-11T11:29:47.331Z,29.70
2018-03-11T11:34:48.346Z,28.50
2018-03-11T11:39:49.316Z,25.10
2018-03-11T11:44:50.288Z,24.13
2018-03-11T11:49:51.273Z,26.33
2018-03-11T11:54:52.255Z,22.97
2018-03-11T11:59:53.228Z,25.97
2018-03-11T12:04:54.202Z,23.20
2018-03-11T12:09:55.178Z,23.30
2018-03-11T12:14:56.149Z,22.83
2018-03-11T12:19:57.173Z,20.97
2018-03-11T12:24:58.179Z,20.20
2018-03-11T12:29:59.151Z,20.50
2018-03-11T12:35:00.124Z,21.20
2018-03-11T12:40:01.143Z,23.00
2018-03-11T12:45:02.098Z,22.10
2018-03-11T12:50:03.052Z,21.17
2018-03-11T12:55:04.016Z,21.07
2018-03-11T13:00:04.997Z,17.70
2018-03-11T13:05:05.971Z,17.43
2018-03-11T13:10:06.988Z,15.27
2018-03-11T13:15:07.955Z,16.37
2018-03-11T13:20:21.234Z,18.70
2018-03-11T13:25:22.223Z,19.20
2018-03-11T13:30:23.204Z,19.40
2018-03-11T13:35:24.170Z,17.30
2018-03-11T13:40:41.482Z,16.57
2018-03-11T13:45:54.797Z,19.40
2018-03-11T13:50:55.801Z,18.90
2018-03-11T13:55:56.794Z,17.63
2018-03-11T14:00:57.788Z,15.53
2018-03-11T14:05:58.769Z,15.00
2018-03-11T14:11:00.728Z,15.67
2018-03-11T14:16:01.712Z,14.03
2018-03-11T14:21:02.925Z,13.93
2018-03-11T14:26:03.926Z,14.23
2018-03-11T14:31:04.903Z,14.70
2018-03-11T14:36:05.877Z,15.30
2018-03-11T14:41:06.831Z,14.43
2018-03-11T14:46:08.758Z,14.57
2018-03-11T14:51:09.734Z,12.97
2018-03-11T14:56:10.701Z,16.10
2018-03-11T15:01:11.681Z,14.07
2018-03-11T16:24:29.413Z,11.00
2018-03-11T16:29:30.442Z,10.90
2018-03-11T16:34:31.417Z,11.63
2018-03-11T16:39:32.462Z,11.53
2018-03-11T16:49:49.364Z,11.83
2018-03-11T16:54:50.336Z,12.90
2018-03-11T16:59:51.287Z,12.83
2018-03-11T17:04:52.286Z,11.70
2018-03-11T17:09:53.283Z,12.63
2018-03-11T17:14:54.256Z,13.00
2018-03-11T17:19:55.273Z,12.23
2018-03-11T17:24:56.313Z,12.33
2018-03-11T17:29:57.339Z,13.90
2018-03-11T17:34:58.330Z,12.73
2018-03-11T17:39:59.350Z,13.20
2018-03-11T17:45:00.306Z,13.13
2018-03-11T17:50:01.297Z,13.00
2018-03-11T17:55:02.288Z,13.53
2018-03-11T18:00:03.287Z,14.97
2018-03-11T18:05:04.264Z,14.50
2018-03-11T18:10:05.241Z,14.63
2018-03-11T18:15:06.234Z,16.30
2018-03-11T18:20:07.194Z,16.47
2018-03-11T18:25:08.176Z,15.90
2018-03-11T18:30:09.192Z,17.00
2018-03-11T18:35:10.177Z,16.67
2018-03-11T18:40:11.186Z,15.87
2018-03-11T18:45:12.148Z,16.90
2018-03-11T18:50:13.157Z,18.00
2018-03-11T18:55:14.158Z,18.30
2018-03-11T19:00:15.130Z,18.10
2018-03-11T19:05:16.091Z,20.43
2018-03-11T19:10:17.062Z,17.77
2018-03-11T19:15:18.065Z,18.47
2018-03-11T19:20:19.094Z,19.00
2018-03-11T19:25:20.060Z,22.30
2018-03-11T19:30:21.092Z,22.90
2018-03-11T19:35:22.050Z,19.27
2018-03-11T19:40:23.089Z,18.83
2018-03-11T19:45:24.119Z,21.97
2018-03-11T19:50:25.101Z,20.93
2018-03-11T19:55:26.045Z,20.03
2018-03-11T20:00:27.038Z,20.20
2018-03-11T20:05:28.022Z,22.67
2018-03-11T20:10:28.972Z,21.13
2018-03-11T20:15:29.994Z,21.83
2018-03-11T20:20:30.956Z,22.37
2018-03-11T20:25:31.969Z,23.07
2018-03-11T20:30:32.997Z,22.70
2018-03-11T20:35:33.999Z,21.90
2018-03-11T20:40:35.004Z,23.20
2018-03-11T20:45:36.007Z,24.47
2018-03-11T20:50:37.003Z,26.97
2018-03-11T20:55:38.012Z,22.37
2018-03-11T21:00:39.017Z,23.77
2018-03-11T21:05:39.993Z,24.13
2018-03-11T21:10:40.980Z,23.47
2018-03-11T21:28:18.402Z,26.83
2018-03-11T21:33:19.429Z,27.17
2018-03-11T21:38:20.436Z,27.10
2018-03-11T21:43:21.386Z,28.33
2018-03-11T21:48:22.347Z,27.60
2018-03-11T21:53:23.303Z,30.53
2018-03-11T21:58:25.134Z,27.23
2018-03-11T22:03:26.089Z,28.90
2018-03-11T22:08:27.057Z,27.93
2018-03-11T22:13:28.005Z,29.17
2018-03-11T22:18:28.995Z,26.93
2018-03-11T22:23:29.950Z,26.90
2018-03-11T22:28:30.901Z,28.90
2018-03-11T22:33:31.858Z,25.83
2018-03-11T22:38:32.775Z,28.17
2018-03-11T22:43:33.738Z,24.03
2018-03-11T22:48:34.685Z,23.85
2018-03-11T22:53:35.618Z,26.60
2018-03-11T22:58:36.574Z,24.07
2018-03-11T23:03:37.512Z,24.50
2018-03-11T23:08:38.472Z,21.73
2018-03-11T23:13:39.463Z,21.83
2018-03-11T23:18:52.738Z,21.90
2018-03-11T23:23:53.690Z,23.83
2018-03-11T23:28:54.629Z,22.07
2018-03-11T23:33:55.580Z,21.97
2018-03-11T23:38:56.518Z,22.90
2018-03-11T23:43:57.695Z,22.90
2018-03-11T23:48:58.958Z,23.70
2018-03-11T23:53:59.888Z,24.13
2018-03-11T23:59:00.815Z,25.83
